Aldea Apeleg, Argentina
Current Conditions -  °F | °C
As of 7:00 AM on Monday 20 Oct 2014 (Local Time) from SCBA Reporting Station
Rain Showers Rain Showers  
Wind Chill: 43°   Ceiling: Unl
Heat Index: 43°   Visibility: 6mi
Dew Point: 41°   Wind: 0mph
Humidity: 93%   Direction: NA
Pressure: 29.62"   Gusts: NA
Location:  44.86°S, 70.84°W
Report Text: SCBA 201000Z AUTO 00000KT 9999 -SHRA VV/// 06/05 Q1003
Loading
Personal Weather Stations






























Interactive Weather Map
Tropical Storm Tracking
New forecast layout! Learn more

10-Day Weather Forecast

Advertisements
Track Severe Weather on mobile